Terminal Aerodrome Forecast
Issued by NWS Wichita, KS

Home | Current Version | Previous Version | Graphics & Text | Print | Product List | Glossary Off
Versions: 1 2 3 4 5 6 7 8 9 10 11 12 13 14 15 16 17 18 19 20 21 22 23 24 25 26

000
FTUS43 KICT 270520
TAFICT
TAF
KICT 270520Z 2706/2806 VRB03KT P6SM SCT100 BKN150
     FM271100 VRB03KT 4SM BR FEW150
     FM271400 12006KT P6SM FEW030
     FM271800 13011KT P6SM SCT040
     FM280300 15008KT P6SM VCTS SCT050CB OVC080=

USA.gov is the U.S. government's official web portal to all federal, state and local government web resources and services.